createdAt,value
2022-11-24T00:01:16.572Z,5.90
2022-11-24T00:03:45.079Z,5.90
2022-11-24T00:06:14.582Z,6.30
2022-11-24T00:08:44.176Z,5.90
2022-11-24T00:11:16.271Z,5.90
2022-11-24T00:13:45.473Z,6.20
2022-11-24T00:16:17.067Z,6.10
2022-11-24T00:18:46.245Z,6.00
2022-11-24T00:21:14.540Z,6.20
2022-11-24T00:23:42.482Z,6.10
2022-11-24T00:26:12.538Z,6.20
2022-11-24T00:28:43.164Z,6.30
2022-11-24T00:31:18.031Z,6.20
2022-11-24T00:33:47.006Z,6.20
2022-11-24T00:36:15.823Z,6.40
2022-11-24T00:38:43.792Z,6.20
2022-11-24T00:41:11.726Z,6.20
2022-11-24T00:43:40.990Z,6.20
2022-11-24T00:46:09.055Z,6.10
2022-11-24T00:48:37.167Z,6.70
2022-11-24T00:51:07.366Z,6.10
2022-11-24T00:53:35.882Z,6.10
2022-11-24T00:56:04.462Z,6.80
2022-11-24T00:58:33.350Z,6.10
2022-11-24T01:01:08.116Z,6.10
2022-11-24T01:03:36.407Z,6.10
2022-11-24T01:06:05.504Z,6.40
2022-11-24T01:08:33.452Z,6.10
2022-11-24T01:11:12.519Z,6.40
2022-11-24T01:13:41.350Z,6.20
2022-11-24T01:16:17.523Z,6.60
2022-11-24T01:18:45.720Z,6.20
2022-11-24T01:21:14.166Z,6.40
2022-11-24T01:23:42.174Z,6.40
2022-11-24T01:26:11.471Z,6.50
2022-11-24T01:28:46.253Z,6.50
2022-11-24T01:31:17.456Z,6.60
2022-11-24T01:33:45.460Z,6.70
2022-11-24T01:36:13.641Z,6.80
2022-11-24T01:38:41.543Z,6.80
2022-11-24T01:41:13.570Z,6.90
2022-11-24T01:43:42.227Z,6.90
2022-11-24T01:46:20.669Z,7.00
2022-11-24T01:48:57.126Z,7.00
2022-11-24T01:51:27.900Z,7.10
2022-11-24T01:54:00.010Z,7.20
2022-11-24T01:56:29.191Z,7.20
2022-11-24T01:59:01.419Z,7.30
2022-11-24T02:01:32.047Z,7.30
2022-11-24T02:04:02.309Z,7.30
2022-11-24T02:06:32.633Z,7.40
2022-11-24T02:09:05.446Z,7.40
2022-11-24T02:11:36.711Z,7.50
2022-11-24T02:14:06.125Z,7.50
2022-11-24T02:16:36.638Z,7.50
2022-11-24T02:19:10.236Z,7.50
2022-11-24T02:21:38.180Z,9.30
2022-11-24T02:24:11.841Z,7.60
2022-11-24T02:26:46.862Z,7.60
2022-11-24T02:29:15.978Z,7.60
2022-11-24T02:31:48.709Z,7.60
2022-11-24T02:34:16.746Z,7.60
2022-11-24T02:36:44.651Z,7.60
2022-11-24T02:39:13.281Z,7.60
2022-11-24T02:41:47.200Z,7.60
2022-11-24T02:44:19.064Z,8.80
2022-11-24T02:46:46.994Z,7.60
2022-11-24T02:49:16.095Z,7.50
2022-11-24T02:51:43.974Z,7.50
2022-11-24T02:54:11.871Z,7.60
2022-11-24T02:56:39.732Z,8.90
2022-11-24T02:59:08.986Z,7.30
2022-11-24T03:01:36.892Z,7.20
2022-11-24T03:04:05.081Z,7.20
2022-11-24T03:06:32.969Z,7.10
2022-11-24T03:09:00.954Z,7.00
2022-11-24T03:11:28.855Z,6.90
2022-11-24T03:13:56.749Z,7.70
2022-11-24T03:16:26.112Z,6.70
2022-11-24T03:18:54.277Z,6.90
2022-11-24T03:21:22.175Z,6.70
2022-11-24T03:23:50.415Z,6.60
2022-11-24T03:26:20.006Z,6.50
2022-11-24T03:28:47.986Z,6.50
2022-11-24T03:31:16.368Z,6.50
2022-11-24T03:33:45.705Z,6.60
2022-11-24T03:36:13.653Z,6.30
2022-11-24T03:38:41.545Z,7.90
2022-11-24T03:41:09.628Z,6.50
2022-11-24T03:43:43.209Z,6.50
2022-11-24T03:46:12.331Z,6.60
2022-11-24T03:48:40.601Z,6.50
2022-11-24T03:51:10.843Z,6.00
2022-11-24T03:53:38.782Z,6.00
2022-11-24T03:56:06.950Z,5.90
2022-11-24T03:58:34.877Z,5.90
2022-11-24T04:01:03.527Z,6.30
2022-11-24T04:03:31.457Z,5.90
2022-11-24T04:05:59.390Z,6.40
2022-11-24T04:08:28.662Z,5.50
2022-11-24T04:10:56.598Z,5.80
2022-11-24T04:13:24.887Z,6.30
2022-11-24T04:15:53.297Z,6.30
2022-11-24T04:18:21.682Z,5.70
2022-11-24T04:20:51.403Z,5.70
2022-11-24T04:23:19.592Z,6.70
2022-11-24T04:25:48.848Z,5.60
2022-11-24T04:28:16.777Z,7.20
2022-11-24T04:30:45.399Z,6.10
2022-11-24T04:33:13.988Z,6.10
2022-11-24T04:35:42.038Z,5.80
2022-11-24T04:38:10.106Z,6.30
2022-11-24T04:40:38.563Z,6.40
2022-11-24T04:43:07.920Z,6.60
2022-11-24T04:45:35.800Z,5.90
2022-11-24T04:48:03.669Z,6.00
2022-11-24T04:50:31.870Z,5.50
2022-11-24T04:52:59.743Z,5.60
2022-11-24T04:55:27.671Z,5.50
2022-11-24T04:57:55.606Z,6.00
2022-11-24T05:00:24.906Z,6.80
2022-11-24T05:02:52.785Z,5.70
2022-11-24T05:05:20.637Z,6.60
2022-11-24T05:07:48.633Z,6.30
2022-11-24T05:10:34.526Z,5.90
2022-11-24T05:13:03.229Z,5.80
2022-11-24T05:15:32.838Z,6.30
2022-11-24T05:18:00.703Z,6.10
2022-11-24T05:20:28.655Z,5.80
2022-11-24T05:22:56.605Z,5.80
2022-11-24T05:25:24.517Z,5.90
2022-11-24T05:27:52.422Z,5.90
2022-11-24T05:30:20.516Z,6.70
2022-11-24T05:32:49.757Z,6.00
2022-11-24T05:35:18.850Z,6.60
2022-11-24T05:37:47.589Z,6.10
2022-11-24T05:40:15.569Z,6.70
2022-11-24T05:42:47.563Z,6.10
2022-11-24T05:45:18.825Z,6.70
2022-11-24T05:47:47.538Z,6.10
2022-11-24T05:50:18.534Z,6.10
2022-11-24T05:52:46.722Z,6.10
2022-11-24T05:55:15.719Z,6.10
2022-11-24T05:57:43.923Z,6.60
2022-11-24T06:00:12.997Z,6.90
2022-11-24T06:02:41.667Z,6.10
2022-11-24T06:05:10.810Z,6.10
2022-11-24T06:07:40.186Z,6.00
2022-11-24T06:10:08.581Z,6.00
2022-11-24T06:12:37.049Z,6.10
2022-11-24T06:15:05.586Z,6.10
2022-11-24T06:17:33.497Z,6.00
2022-11-24T06:20:01.456Z,6.90
2022-11-24T06:22:29.419Z,8.00
2022-11-24T06:24:58.703Z,6.00
2022-11-24T06:27:27.156Z,6.00
2022-11-24T06:29:55.107Z,6.10
2022-11-24T06:32:24.117Z,6.00
2022-11-24T06:34:52.114Z,6.00
2022-11-24T06:37:20.039Z,6.00
2022-11-24T06:39:48.412Z,6.00
2022-11-24T06:42:18.887Z,6.10
2022-11-24T06:44:47.367Z,7.10
2022-11-24T06:47:15.549Z,6.00
2022-11-24T06:49:43.494Z,6.00
2022-11-24T06:52:11.421Z,6.00
2022-11-24T06:54:39.369Z,7.00
2022-11-24T06:57:07.406Z,6.30
2022-11-24T06:59:36.709Z,6.60
2022-11-24T07:02:04.626Z,6.00
2022-11-24T07:04:32.878Z,6.80
2022-11-24T07:07:00.970Z,6.20
2022-11-24T07:09:28.839Z,6.10
2022-11-24T07:11:57.079Z,6.70
2022-11-24T07:14:25.034Z,6.40
2022-11-24T07:16:54.346Z,6.20
2022-11-24T07:19:25.057Z,6.70
2022-11-24T07:21:53.222Z,6.30
2022-11-24T07:24:21.096Z,6.20
2022-11-24T07:26:48.983Z,6.30
2022-11-24T07:29:16.871Z,6.30
2022-11-24T07:31:45.921Z,6.30
2022-11-24T07:34:15.609Z,6.40
2022-11-24T07:36:45.033Z,6.40
2022-11-24T07:39:12.990Z,6.50
2022-11-24T07:41:40.961Z,6.50
2022-11-24T07:44:09.075Z,6.60
2022-11-24T07:46:37.083Z,6.60
2022-11-24T07:49:05.088Z,6.70
2022-11-24T07:51:34.346Z,7.30
2022-11-24T07:54:02.255Z,6.80
2022-11-24T07:56:30.212Z,6.80
2022-11-24T07:58:58.097Z,6.90
2022-11-24T08:01:25.996Z,6.90
2022-11-24T08:03:54.046Z,7.70
2022-11-24T08:06:25.491Z,7.00
2022-11-24T08:08:55.865Z,7.00
2022-11-24T08:11:24.182Z,7.10
2022-11-24T08:13:52.293Z,7.10
2022-11-24T08:16:21.296Z,7.20
2022-11-24T08:18:51.697Z,7.30
2022-11-24T08:21:20.067Z,7.40
2022-11-24T08:24:09.191Z,7.50
2022-11-24T08:26:52.314Z,7.60
2022-11-24T08:29:20.254Z,7.70
2022-11-24T08:31:57.158Z,7.80
2022-11-24T08:34:28.277Z,7.90
2022-11-24T08:36:56.576Z,8.00
2022-11-24T08:39:25.797Z,8.00
2022-11-24T08:41:53.660Z,8.10
2022-11-24T08:44:21.583Z,8.10
2022-11-24T08:46:49.947Z,8.10
2022-11-24T08:49:18.902Z,8.10
2022-11-24T08:51:48.498Z,8.10
2022-11-24T08:54:18.616Z,8.20
2022-11-24T08:56:50.097Z,8.20
2022-11-24T08:59:18.209Z,8.10
2022-11-24T09:01:46.355Z,8.30
2022-11-24T09:04:14.325Z,8.30
2022-11-24T09:06:42.273Z,8.30
2022-11-24T09:09:12.018Z,8.30
2022-11-24T09:11:39.977Z,8.60
2022-11-24T09:14:09.248Z,8.50
2022-11-24T09:16:37.663Z,8.50
2022-11-24T09:19:08.021Z,8.60
2022-11-24T09:21:37.807Z,7.20
2022-11-24T09:24:07.292Z,8.80
2022-11-24T09:26:37.070Z,8.80
2022-11-24T09:29:07.944Z,8.80
2022-11-24T09:31:39.175Z,8.80
2022-11-24T09:34:09.840Z,8.80
2022-11-24T09:36:37.806Z,8.80
2022-11-24T09:39:06.071Z,8.90
2022-11-24T09:41:45.538Z,8.90
2022-11-24T09:44:37.282Z,9.00
2022-11-24T09:47:17.026Z,9.10
2022-11-24T09:49:51.584Z,9.20
2022-11-24T09:52:26.616Z,9.30
2022-11-24T09:54:59.334Z,9.40
2022-11-24T09:57:35.737Z,9.40
2022-11-24T10:00:12.608Z,9.50
2022-11-24T10:02:41.868Z,9.50
2022-11-24T10:05:13.324Z,9.50
2022-11-24T10:07:47.485Z,9.60
2022-11-24T10:10:24.485Z,9.60
2022-11-24T10:13:02.096Z,9.60
2022-11-24T10:15:45.826Z,9.60
2022-11-24T10:18:33.330Z,9.70
2022-11-24T10:21:12.838Z,9.80
2022-11-24T10:24:32.177Z,10.00
2022-11-24T10:27:03.798Z,10.20
2022-11-24T10:29:39.134Z,10.40
2022-11-24T10:32:15.019Z,10.40
2022-11-24T10:34:46.411Z,10.40
2022-11-24T10:37:22.602Z,10.40
2022-11-24T10:40:00.283Z,10.40
2022-11-24T10:42:31.311Z,10.30
2022-11-24T10:45:27.460Z,10.20
2022-11-24T10:47:55.694Z,10.10
2022-11-24T10:50:27.007Z,10.00
2022-11-24T10:53:03.396Z,10.10
2022-11-24T10:56:02.529Z,10.10
2022-11-24T10:58:37.302Z,10.10
2022-11-24T11:01:22.148Z,10.10
2022-11-24T11:03:52.590Z,10.10
2022-11-24T11:06:25.757Z,10.20
2022-11-24T11:09:19.138Z,10.30
2022-11-24T11:11:48.849Z,10.50
2022-11-24T11:14:31.001Z,10.50
2022-11-24T11:16:59.567Z,10.30
2022-11-24T11:19:56.906Z,10.50
2022-11-24T11:22:29.441Z,10.40
2022-11-24T11:25:08.263Z,10.30
2022-11-24T11:27:36.226Z,10.20
2022-11-24T11:36:15.619Z,9.90
2022-11-24T11:38:46.751Z,10.00
2022-11-24T11:41:21.350Z,10.10
2022-11-24T11:43:54.435Z,10.20
2022-11-24T11:46:22.748Z,10.10
2022-11-24T11:48:50.854Z,10.30
2022-11-24T11:51:33.465Z,10.40
2022-11-24T11:54:10.400Z,10.40
2022-11-24T11:56:44.248Z,10.30
2022-11-24T11:59:41.320Z,10.20
2022-11-24T12:02:28.079Z,10.10
2022-11-24T12:04:59.255Z,10.00
2022-11-24T12:07:55.589Z,9.90
2022-11-24T12:10:36.879Z,9.90
2022-11-24T12:13:32.446Z,9.80
2022-11-24T12:16:11.639Z,9.80
2022-11-24T12:18:57.601Z,9.70
2022-11-24T12:21:34.765Z,9.60
2022-11-24T12:24:12.192Z,9.70
2022-11-24T12:26:46.277Z,9.60
2022-11-24T12:29:53.227Z,9.70
2022-11-24T12:32:38.806Z,9.70
2022-11-24T12:35:20.837Z,9.60
2022-11-24T12:37:58.455Z,9.70
2022-11-24T12:40:46.402Z,9.70
2022-11-24T12:43:23.899Z,9.70
2022-11-24T12:45:57.877Z,9.60
2022-11-24T12:48:39.957Z,9.60
2022-11-24T12:51:16.451Z,9.70
2022-11-24T12:53:45.741Z,9.70
2022-11-24T12:56:16.318Z,9.70
2022-11-24T12:58:51.519Z,9.70
2022-11-24T13:01:29.433Z,9.60
2022-11-24T13:04:08.630Z,9.60
2022-11-24T13:06:49.375Z,9.60
2022-11-24T13:09:18.004Z,9.60
2022-11-24T13:11:47.500Z,9.60
2022-11-24T13:14:20.261Z,9.60
2022-11-24T13:17:21.740Z,9.60
2022-11-24T13:19:42.385Z,9.60
2022-11-24T13:22:19.564Z,9.50
2022-11-24T13:25:04.314Z,9.50
2022-11-24T13:27:45.492Z,9.50
2022-11-24T13:30:50.039Z,9.40
2022-11-24T13:33:36.862Z,9.40
2022-11-24T13:36:33.081Z,9.40
2022-11-24T13:39:02.281Z,9.40
2022-11-24T13:42:10.400Z,9.40
2022-11-24T13:44:59.459Z,9.40
2022-11-24T13:47:36.110Z,9.40
2022-11-24T13:50:07.977Z,9.40
2022-11-24T13:52:48.488Z,9.40
2022-11-24T13:55:30.783Z,9.30
2022-11-24T13:58:03.452Z,9.30
2022-11-24T14:00:34.035Z,9.20
2022-11-24T14:03:04.634Z,9.10
2022-11-24T14:05:38.960Z,9.00
2022-11-24T14:08:21.046Z,9.00
2022-11-24T14:10:49.072Z,9.00
2022-11-24T14:13:18.403Z,9.00
2022-11-24T14:15:59.420Z,9.00
2022-11-24T14:18:29.112Z,9.00
2022-11-24T14:20:59.341Z,9.90
2022-11-24T14:23:27.436Z,8.50
2022-11-24T14:25:55.645Z,9.00
2022-11-24T14:28:26.677Z,11.30
2022-11-24T14:31:09.556Z,9.30
2022-11-24T14:34:13.976Z,9.10
2022-11-24T14:36:43.712Z,9.10
2022-11-24T14:39:27.050Z,9.10
2022-11-24T14:42:05.894Z,9.10
2022-11-24T14:44:49.120Z,10.90
2022-11-24T14:47:28.756Z,9.00
2022-11-24T14:50:09.314Z,8.90
2022-11-24T14:52:45.672Z,8.40
2022-11-24T14:55:26.113Z,8.90
2022-11-24T14:57:54.163Z,8.80
2022-11-24T15:00:29.233Z,10.90
2022-11-24T15:03:09.365Z,8.80
2022-11-24T15:06:00.410Z,9.00
2022-11-24T15:08:36.782Z,8.10
2022-11-24T15:11:06.846Z,10.20
2022-11-24T15:13:38.419Z,8.50
2022-11-24T15:16:17.462Z,10.20
2022-11-24T15:18:47.895Z,10.50
2022-11-24T15:21:19.575Z,8.40
2022-11-24T15:24:07.173Z,8.90
2022-11-24T15:26:40.207Z,8.60
2022-11-24T15:29:10.493Z,10.60
2022-11-24T15:31:38.809Z,8.80
2022-11-24T15:34:07.241Z,9.30
2022-11-24T15:36:35.211Z,8.10
2022-11-24T15:39:07.041Z,8.60
2022-11-24T15:41:35.348Z,8.00
2022-11-24T15:44:03.361Z,8.30
2022-11-24T15:46:37.634Z,7.90
2022-11-24T15:49:06.489Z,7.80
2022-11-24T15:51:34.932Z,7.60
2022-11-24T15:54:03.084Z,7.60
2022-11-24T15:56:34.574Z,6.90
2022-11-24T15:59:02.918Z,7.20
2022-11-24T16:01:33.282Z,7.30
2022-11-24T16:04:02.232Z,7.90
2022-11-24T16:06:30.211Z,6.80
2022-11-24T16:08:59.202Z,7.40
2022-11-24T16:11:27.927Z,7.00
2022-11-24T16:13:57.404Z,6.30
2022-11-24T16:16:25.828Z,7.50
2022-11-24T16:18:53.928Z,6.00
2022-11-24T16:21:22.075Z,7.20
2022-11-24T16:23:50.057Z,6.50
2022-11-24T16:26:18.089Z,8.70
2022-11-24T16:28:46.399Z,7.70
2022-11-24T16:31:16.483Z,7.40
2022-11-24T16:33:46.208Z,6.90
2022-11-24T16:36:14.676Z,6.20
2022-11-24T16:38:42.992Z,6.60
2022-11-24T16:41:11.359Z,6.60
2022-11-24T16:43:39.705Z,8.20
2022-11-24T16:46:21.113Z,7.40
2022-11-24T16:48:51.651Z,5.90
2022-11-24T16:51:21.488Z,5.80
2022-11-24T16:53:49.561Z,6.10
2022-11-24T16:56:17.590Z,7.10
2022-11-24T16:58:45.733Z,7.00
2022-11-24T17:01:15.039Z,6.70
2022-11-24T17:03:44.814Z,5.90
2022-11-24T17:06:15.810Z,7.60
2022-11-24T17:08:46.553Z,7.70
2022-11-24T17:11:44.207Z,5.30
2022-11-24T17:14:13.149Z,5.10
2022-11-24T17:16:41.285Z,5.90
2022-11-24T17:19:11.360Z,5.70
2022-11-24T17:21:41.608Z,5.20
2022-11-24T17:24:15.430Z,6.70
2022-11-24T17:26:48.801Z,5.00
2022-11-24T17:29:17.524Z,5.70
2022-11-24T17:31:46.313Z,6.60
2022-11-24T17:34:16.250Z,5.60
2022-11-24T17:36:46.089Z,5.00
2022-11-24T17:39:14.509Z,5.40
2022-11-24T17:41:42.702Z,4.20
2022-11-24T17:44:12.644Z,4.50
2022-11-24T17:46:40.602Z,5.20
2022-11-24T17:49:13.003Z,5.90
2022-11-24T17:51:42.640Z,4.10
2022-11-24T17:54:39.160Z,4.30
2022-11-24T17:56:58.975Z,4.30
2022-11-24T17:59:27.038Z,4.30
2022-11-24T18:01:55.051Z,4.50
2022-11-24T18:04:23.597Z,4.10
2022-11-24T18:06:54.385Z,5.50
2022-11-24T18:09:23.746Z,3.90
2022-11-24T18:11:52.122Z,4.20
2022-11-24T18:14:20.178Z,5.70
2022-11-24T18:16:48.264Z,5.70
2022-11-24T18:19:16.323Z,4.30
2022-11-24T18:21:45.190Z,3.80
2022-11-24T18:24:18.458Z,4.80
2022-11-24T18:26:50.207Z,3.50
2022-11-24T18:29:18.247Z,5.40
2022-11-24T18:31:46.295Z,5.30
2022-11-24T18:34:14.394Z,4.80
2022-11-24T18:36:44.900Z,4.80
2022-11-24T18:39:17.930Z,3.30
2022-11-24T18:41:46.083Z,5.10
2022-11-24T18:44:14.093Z,4.70
2022-11-24T18:46:42.069Z,4.90
2022-11-24T18:49:10.439Z,3.10
2022-11-24T18:51:38.450Z,3.40
2022-11-24T18:54:06.465Z,3.30
2022-11-24T18:56:35.874Z,3.20
2022-11-24T18:59:03.855Z,4.30
2022-11-24T19:01:32.367Z,3.90
2022-11-24T19:04:03.094Z,2.90
2022-11-24T19:06:33.105Z,3.00
2022-11-24T19:09:02.788Z,4.70
2022-11-24T19:11:33.767Z,3.10
2022-11-24T19:14:03.752Z,4.00
2022-11-24T19:16:32.061Z,4.60
2022-11-24T19:19:02.440Z,4.80
2022-11-24T19:21:32.438Z,3.10
2022-11-24T19:24:04.892Z,4.50
2022-11-24T19:26:34.771Z,2.70
2022-11-24T19:29:05.131Z,5.10
2022-11-24T19:31:33.878Z,3.90
2022-11-24T19:34:03.063Z,3.00
2022-11-24T19:36:31.281Z,3.60
2022-11-24T19:39:00.153Z,3.90
2022-11-24T19:41:29.798Z,4.20
2022-11-24T19:43:58.722Z,3.00
2022-11-24T19:46:29.641Z,4.90
2022-11-24T19:49:00.615Z,2.90
2022-11-24T19:51:31.204Z,4.90
2022-11-24T19:53:59.649Z,4.30
2022-11-24T19:56:30.550Z,3.70
2022-11-24T19:59:02.869Z,3.10
2022-11-24T20:01:34.819Z,3.00
2022-11-24T20:04:11.470Z,3.80
2022-11-24T20:06:41.609Z,4.00
2022-11-24T20:09:12.323Z,4.40
2022-11-24T20:11:42.127Z,3.60
2022-11-24T20:14:12.465Z,3.50
2022-11-24T20:16:42.351Z,3.10
2022-11-24T20:19:13.215Z,3.30
2022-11-24T20:21:46.145Z,3.60
2022-11-24T20:24:16.471Z,5.80
2022-11-24T20:26:46.808Z,2.80
2022-11-24T20:29:15.599Z,4.80
2022-11-24T20:32:08.133Z,5.00
2022-11-24T20:34:37.409Z,3.30
2022-11-24T20:37:13.301Z,4.00
2022-11-24T20:39:42.290Z,4.20
2022-11-24T20:42:10.676Z,3.40
2022-11-24T20:44:39.399Z,2.60
2022-11-24T20:47:09.174Z,3.20
2022-11-24T20:49:37.432Z,4.20
2022-11-24T20:52:06.342Z,5.30
2022-11-24T20:54:35.505Z,3.00
2022-11-24T20:57:04.111Z,3.10
2022-11-24T20:59:32.555Z,3.90
2022-11-24T21:02:01.120Z,4.90
2022-11-24T21:04:31.139Z,4.90
2022-11-24T21:06:59.903Z,2.90
2022-11-24T21:09:28.670Z,2.90
2022-11-24T21:11:57.164Z,3.70
2022-11-24T21:14:25.863Z,4.50
2022-11-24T21:16:54.266Z,2.80
2022-11-24T21:19:22.587Z,3.70
2022-11-24T21:21:52.099Z,4.30
2022-11-24T21:24:22.317Z,4.20
2022-11-24T21:26:52.896Z,5.10
2022-11-24T21:29:23.499Z,5.00
2022-11-24T21:31:51.980Z,5.20
2022-11-24T21:34:20.394Z,5.50
2022-11-24T21:36:48.903Z,4.10
2022-11-24T21:39:18.630Z,3.20
2022-11-24T21:41:47.648Z,5.20
2022-11-24T21:44:16.420Z,4.40
2022-11-24T21:46:49.551Z,3.00
2022-11-24T21:49:20.788Z,4.00
2022-11-24T21:51:55.303Z,4.10
2022-11-24T21:54:25.325Z,5.20
2022-11-24T21:56:55.515Z,4.40
2022-11-24T21:59:23.633Z,5.00
2022-11-24T22:01:51.711Z,4.90
2022-11-24T22:04:19.803Z,3.00
2022-11-24T22:06:48.207Z,5.00
2022-11-24T22:09:18.316Z,2.80
2022-11-24T22:11:49.339Z,2.70
2022-11-24T22:14:17.653Z,3.30
2022-11-24T22:16:45.960Z,2.50
2022-11-24T22:19:14.121Z,2.50
2022-11-24T22:21:42.198Z,4.50
2022-11-24T22:24:10.512Z,2.50
2022-11-24T22:26:38.705Z,2.90
2022-11-24T22:29:08.416Z,3.30
2022-11-24T22:31:36.513Z,4.50
2022-11-24T22:34:04.882Z,2.90
2022-11-24T22:36:32.969Z,2.30
2022-11-24T22:39:03.376Z,4.40
2022-11-24T22:41:32.462Z,4.70
2022-11-24T22:44:00.462Z,3.70
2022-11-24T22:46:31.670Z,4.40
2022-11-24T22:49:01.133Z,4.40
2022-11-24T22:51:31.458Z,4.50
2022-11-24T22:54:01.352Z,3.10
2022-11-24T22:56:32.203Z,1.90
2022-11-24T22:59:00.880Z,2.00
2022-11-24T23:01:31.545Z,2.20
2022-11-24T23:03:59.684Z,3.30
2022-11-24T23:06:29.976Z,4.30
2022-11-24T23:08:59.159Z,1.90
2022-11-24T23:11:34.924Z,3.70
2022-11-24T23:14:06.513Z,1.80
2022-11-24T23:16:35.949Z,3.30
2022-11-24T23:19:04.282Z,1.90
2022-11-24T23:21:33.665Z,1.60
2022-11-24T23:24:03.502Z,1.30
2022-11-24T23:26:32.680Z,2.00
2022-11-24T23:29:00.841Z,1.90
2022-11-24T23:31:29.550Z,1.90
2022-11-24T23:33:59.939Z,1.90
2022-11-24T23:36:29.003Z,1.70
2022-11-24T23:38:57.204Z,2.50
2022-11-24T23:41:26.823Z,2.10
2022-11-24T23:43:54.759Z,2.10
2022-11-24T23:46:24.528Z,2.20
2022-11-24T23:48:54.276Z,2.20
2022-11-24T23:51:25.266Z,4.30
2022-11-24T23:53:53.675Z,3.50
2022-11-24T23:56:23.610Z,2.50
2022-11-24T23:58:51.635Z,2.50
